createdAt,value
2022-10-18T00:01:01.968Z,68.45
2022-10-18T00:03:45.282Z,68.79
2022-10-18T00:06:33.963Z,68.91
2022-10-18T00:09:16.269Z,68.28
2022-10-18T00:12:05.968Z,68.06
2022-10-18T00:14:48.242Z,68.33
2022-10-18T00:17:37.036Z,67.90
2022-10-18T00:20:20.676Z,67.75
2022-10-18T00:23:09.970Z,68.01
2022-10-18T00:25:52.259Z,68.76
2022-10-18T00:29:35.926Z,68.51
2022-10-18T00:32:34.486Z,68.43
2022-10-18T00:35:16.965Z,68.49
2022-10-18T00:38:06.975Z,69.78
2022-10-18T00:40:49.404Z,69.34
2022-10-18T00:43:38.030Z,69.39
2022-10-18T00:46:20.243Z,69.85
2022-10-18T00:49:29.937Z,69.87
2022-10-18T00:52:58.864Z,69.61
2022-10-18T00:55:47.940Z,69.87
2022-10-18T00:58:30.260Z,69.75
2022-10-18T01:01:18.986Z,69.66
2022-10-18T01:04:08.962Z,69.93
2022-10-18T01:07:06.251Z,69.14
2022-10-18T01:10:09.024Z,69.73
2022-10-18T01:13:28.536Z,69.94
2022-10-18T01:16:36.038Z,70.64
2022-10-18T01:19:39.352Z,70.43
2022-10-18T01:22:37.034Z,70.22
2022-10-18T01:25:56.956Z,69.38
2022-10-18T01:28:58.261Z,69.54
2022-10-18T01:32:14.134Z,70.13
2022-10-18T01:34:58.959Z,70.27
2022-10-18T01:37:50.951Z,69.80
2022-10-18T01:40:34.234Z,70.62
2022-10-18T01:43:25.006Z,70.02
2022-10-18T01:46:08.354Z,68.87
2022-10-18T01:48:57.061Z,69.39
2022-10-18T01:51:41.416Z,68.98
2022-10-18T01:54:46.973Z,69.13
2022-10-18T01:57:32.243Z,68.77
2022-10-18T02:00:31.939Z,69.27
2022-10-18T02:03:31.254Z,68.31
2022-10-18T02:06:34.952Z,69.26
2022-10-18T02:09:28.326Z,68.83
2022-10-18T02:12:21.929Z,66.18
2022-10-18T02:15:05.256Z,68.04
2022-10-18T02:17:54.944Z,67.24
2022-10-18T02:20:38.197Z,66.64
2022-10-18T02:23:30.950Z,67.00
2022-10-18T02:26:20.934Z,67.30
2022-10-18T02:29:03.961Z,66.17
2022-10-18T02:32:00.954Z,65.61
2022-10-18T02:35:15.698Z,65.14
2022-10-18T02:38:06.975Z,64.71
2022-10-18T02:40:55.978Z,63.43
2022-10-18T02:43:38.295Z,61.35
2022-10-18T02:46:28.951Z,62.06
2022-10-18T02:49:17.953Z,59.89
2022-10-18T02:52:00.244Z,63.29
2022-10-18T02:54:49.347Z,60.33
2022-10-18T02:57:32.019Z,60.24
2022-10-18T03:00:21.949Z,61.06
2022-10-18T03:03:16.938Z,57.74
2022-10-18T03:06:05.200Z,57.48
2022-10-18T03:08:47.011Z,56.80
2022-10-18T03:11:36.304Z,57.31
2022-10-18T03:14:18.231Z,58.96
2022-10-18T03:17:00.281Z,57.75
2022-10-18T03:19:48.934Z,57.58
2022-10-18T03:22:31.116Z,56.40
2022-10-18T03:25:19.931Z,55.80
2022-10-18T03:28:08.950Z,53.91
2022-10-18T03:31:03.945Z,54.90
2022-10-18T03:33:46.158Z,54.28
2022-10-18T03:36:34.969Z,54.54
2022-10-18T03:39:17.146Z,53.36
2022-10-18T03:42:05.940Z,51.72
2022-10-18T03:44:48.087Z,51.63
2022-10-18T03:47:36.931Z,51.13
2022-10-18T03:50:25.958Z,52.00
2022-10-18T03:53:08.245Z,52.62
2022-10-18T03:56:03.926Z,51.86
2022-10-18T03:58:46.360Z,50.90
2022-10-18T04:01:35.310Z,48.26
2022-10-18T04:04:17.230Z,48.84
2022-10-18T04:07:05.938Z,46.43
2022-10-18T04:09:48.357Z,49.19
2022-10-18T04:12:36.926Z,45.07
2022-10-18T04:15:19.214Z,44.05
2022-10-18T04:18:07.951Z,43.56
2022-10-18T04:20:56.927Z,43.64
2022-10-18T04:23:45.924Z,42.92
2022-10-18T04:26:28.370Z,46.42
2022-10-18T04:29:16.920Z,45.07
2022-10-18T04:32:05.431Z,42.98
2022-10-18T04:34:46.918Z,42.02
2022-10-18T04:37:35.425Z,40.11
2022-10-18T04:40:17.918Z,40.26
2022-10-18T04:43:06.213Z,38.30
2022-10-18T04:45:47.961Z,37.80
2022-10-18T04:48:36.188Z,39.65
2022-10-18T04:51:18.937Z,35.11
2022-10-18T04:54:08.333Z,36.21
2022-10-18T04:56:49.911Z,35.21
2022-10-18T04:59:32.233Z,33.61
2022-10-18T05:02:20.931Z,35.28
2022-10-18T05:05:11.728Z,35.33
2022-10-18T05:07:56.658Z,34.35
2022-10-18T05:10:39.108Z,35.67
2022-10-18T05:13:27.908Z,35.24
2022-10-18T05:16:10.342Z,37.32
2022-10-18T05:18:58.935Z,35.72
2022-10-18T05:21:47.219Z,34.29
2022-10-18T05:24:28.925Z,34.32
2022-10-18T05:27:12.188Z,34.99
2022-10-18T05:30:04.531Z,36.02
2022-10-18T05:33:00.935Z,32.90
2022-10-18T05:35:50.450Z,33.44
2022-10-18T05:38:32.988Z,35.24
2022-10-18T05:41:23.321Z,34.55
2022-10-18T05:44:05.743Z,32.98
2022-10-18T05:46:54.921Z,36.37
2022-10-18T05:49:37.310Z,33.19
2022-10-18T05:52:25.925Z,33.66
2022-10-18T05:55:08.267Z,33.54
2022-10-18T05:57:59.921Z,32.98
2022-10-18T06:00:42.325Z,31.16
2022-10-18T06:03:31.196Z,33.79
2022-10-18T06:06:16.334Z,31.51
2022-10-18T06:09:04.926Z,32.34
2022-10-18T06:11:47.211Z,33.40
2022-10-18T06:14:35.898Z,33.06
2022-10-18T06:17:19.503Z,35.17
2022-10-18T06:20:07.920Z,35.55
2022-10-18T06:22:50.365Z,35.36
2022-10-18T06:25:38.919Z,34.51
2022-10-18T06:28:21.408Z,34.39
2022-10-18T06:31:09.923Z,35.69
2022-10-18T06:33:52.228Z,30.29
2022-10-18T06:36:40.969Z,33.08
2022-10-18T06:39:23.259Z,30.97
2022-10-18T06:42:11.956Z,33.83
2022-10-18T06:44:54.232Z,33.36
2022-10-18T06:47:42.934Z,31.01
2022-10-18T06:50:25.287Z,30.43
2022-10-18T06:53:15.976Z,33.12
2022-10-18T06:56:04.934Z,32.60
2022-10-18T06:58:53.957Z,31.86
2022-10-18T07:01:36.394Z,32.66
2022-10-18T07:04:25.006Z,34.46
2022-10-18T07:07:07.440Z,32.48
2022-10-18T07:09:56.920Z,32.19
2022-10-18T07:12:40.325Z,31.96
2022-10-18T07:18:19.318Z,33.55
2022-10-18T07:21:11.297Z,33.35
2022-10-18T07:23:54.350Z,33.86
2022-10-18T07:26:44.004Z,31.75
2022-10-18T07:29:32.912Z,31.90
2022-10-18T07:32:28.903Z,33.14
2022-10-18T07:35:17.875Z,32.54
2022-10-18T07:38:00.398Z,30.78
2022-10-18T07:40:48.985Z,31.29
2022-10-18T07:43:31.471Z,30.67
2022-10-18T07:46:20.957Z,31.82
2022-10-18T07:49:03.261Z,31.55
2022-10-18T07:51:51.931Z,32.51
2022-10-18T07:54:41.054Z,33.76
2022-10-18T07:57:30.491Z,30.23
2022-10-18T08:00:13.980Z,31.75
2022-10-18T08:03:06.918Z,29.73
2022-10-18T08:05:49.371Z,31.94
2022-10-18T08:08:39.199Z,31.16
2022-10-18T08:11:33.916Z,34.34
2022-10-18T08:14:16.491Z,30.02
2022-10-18T08:17:05.041Z,31.38
2022-10-18T08:19:58.364Z,32.36
2022-10-18T08:22:59.851Z,30.76
2022-10-18T08:25:42.267Z,29.52
2022-10-18T08:28:31.036Z,31.68
2022-10-18T08:31:22.294Z,29.87
2022-10-18T08:34:07.924Z,32.11
2022-10-18T08:36:56.993Z,30.39
2022-10-18T08:39:39.380Z,30.48
2022-10-18T08:42:44.940Z,31.55
2022-10-18T08:45:48.438Z,32.88
2022-10-18T08:48:47.345Z,31.69
2022-10-18T08:51:49.936Z,32.41
2022-10-18T08:54:34.916Z,30.46
2022-10-18T08:57:25.255Z,32.31
2022-10-18T09:00:07.120Z,35.03
2022-10-18T09:03:25.990Z,32.26
2022-10-18T09:06:38.004Z,32.77
2022-10-18T09:09:47.201Z,33.10
2022-10-18T09:12:29.274Z,32.02
2022-10-18T09:15:29.257Z,30.97
2022-10-18T09:18:40.231Z,29.76
2022-10-18T09:21:39.670Z,31.27
2022-10-18T09:24:42.039Z,31.12
2022-10-18T09:27:42.934Z,32.85
2022-10-18T09:31:16.285Z,30.65
2022-10-18T09:34:08.983Z,30.54
2022-10-18T09:37:00.103Z,32.21
2022-10-18T09:39:50.216Z,31.60
2022-10-18T09:42:43.918Z,30.53
2022-10-18T09:45:34.208Z,29.27
2022-10-18T09:48:28.960Z,30.34
2022-10-18T09:51:18.869Z,30.91
2022-10-18T09:54:37.073Z,32.93
2022-10-18T09:57:31.161Z,31.31
2022-10-18T10:00:29.117Z,33.48
2022-10-18T10:03:15.897Z,33.12
2022-10-18T10:06:18.065Z,32.45
2022-10-18T10:09:13.268Z,31.25
2022-10-18T10:11:58.082Z,30.52
2022-10-18T10:14:52.220Z,31.58
2022-10-18T10:17:37.070Z,30.37
2022-10-18T10:20:37.445Z,29.57
2022-10-18T10:23:54.351Z,32.95
2022-10-18T10:26:43.220Z,33.14
2022-10-18T10:30:07.339Z,29.54
2022-10-18T10:33:01.218Z,29.56
2022-10-18T10:35:53.582Z,32.84
2022-10-18T10:38:36.149Z,31.26
2022-10-18T10:41:38.978Z,34.44
2022-10-18T10:44:24.453Z,32.29
2022-10-18T10:47:13.993Z,31.38
2022-10-18T10:50:04.224Z,30.96
2022-10-18T10:52:48.924Z,34.41
2022-10-18T10:55:36.736Z,36.68
2022-10-18T10:58:32.012Z,36.81
2022-10-18T11:01:36.026Z,36.97
2022-10-18T11:04:26.064Z,36.92
2022-10-18T11:07:26.058Z,35.56
2022-10-18T11:10:19.225Z,37.00
2022-10-18T11:13:21.984Z,37.77
2022-10-18T11:16:21.345Z,38.22
2022-10-18T11:19:05.926Z,42.04
2022-10-18T11:21:48.408Z,41.68
2022-10-18T11:24:38.320Z,41.04
2022-10-18T11:27:34.337Z,40.26
2022-10-18T11:30:38.070Z,40.76
2022-10-18T11:34:07.180Z,41.13
2022-10-18T11:37:26.724Z,42.64
2022-10-18T11:40:29.331Z,42.91
2022-10-18T11:43:38.918Z,42.75
2022-10-18T11:47:32.329Z,43.22
2022-10-18T11:50:27.417Z,43.57
2022-10-18T11:53:31.017Z,43.39
2022-10-18T11:56:13.158Z,43.29
2022-10-18T11:59:33.049Z,44.27
2022-10-18T12:02:27.296Z,45.38
2022-10-18T12:05:23.054Z,45.37
2022-10-18T12:08:45.679Z,44.53
2022-10-18T12:11:43.946Z,44.60
2022-10-18T12:14:48.923Z,46.52
2022-10-18T12:17:49.097Z,45.77
2022-10-18T12:20:36.893Z,45.96
2022-10-18T12:23:55.012Z,46.83
2022-10-18T12:26:44.952Z,46.45
2022-10-18T12:29:33.942Z,46.12
2022-10-18T12:32:33.286Z,46.79
2022-10-18T12:35:26.122Z,48.56
2022-10-18T12:38:14.201Z,48.19
2022-10-18T12:41:02.925Z,48.83
2022-10-18T12:43:45.796Z,48.43
2022-10-18T12:46:56.364Z,49.08
2022-10-18T12:49:45.623Z,49.31
2022-10-18T12:52:37.048Z,48.34
2022-10-18T12:55:20.610Z,52.50
2022-10-18T12:58:30.013Z,51.98
2022-10-18T13:01:21.079Z,50.91
2022-10-18T13:04:09.310Z,51.05
2022-10-18T13:07:16.041Z,50.91
2022-10-18T13:10:16.184Z,50.22
2022-10-18T13:13:47.087Z,49.31
2022-10-18T13:16:56.274Z,49.68
2022-10-18T13:20:33.925Z,50.44
2022-10-18T13:23:44.371Z,51.03
2022-10-18T13:26:58.225Z,50.36
2022-10-18T13:30:08.424Z,51.52
2022-10-18T13:33:01.928Z,50.49
2022-10-18T13:36:07.626Z,49.66
2022-10-18T13:38:59.986Z,49.91
2022-10-18T13:41:55.103Z,49.44
2022-10-18T13:44:48.090Z,49.38
2022-10-18T13:47:46.195Z,49.70
2022-10-18T13:50:49.966Z,50.57
2022-10-18T13:54:10.328Z,49.69
2022-10-18T13:57:17.113Z,50.27
2022-10-18T14:00:26.230Z,50.78
2022-10-18T14:04:02.982Z,49.90
2022-10-18T14:06:50.224Z,48.96
2022-10-18T14:09:55.017Z,48.00
2022-10-18T14:12:48.320Z,46.92
2022-10-18T14:15:51.986Z,48.70
2022-10-18T14:18:40.382Z,47.46
2022-10-18T14:21:37.978Z,50.50
2022-10-18T14:24:48.227Z,49.59
2022-10-18T14:27:41.028Z,50.39
2022-10-18T14:30:25.452Z,50.82
2022-10-18T14:33:14.355Z,49.84
2022-10-18T14:36:17.548Z,50.33
2022-10-18T14:39:09.117Z,50.82
2022-10-18T14:42:03.275Z,51.22
2022-10-18T14:44:59.158Z,50.99
2022-10-18T14:47:45.343Z,49.49
2022-10-18T14:50:37.038Z,48.79
2022-10-18T14:53:36.945Z,49.98
2022-10-18T14:56:45.063Z,50.56
2022-10-18T14:59:35.296Z,51.40
2022-10-18T15:02:32.267Z,51.92
2022-10-18T15:05:32.324Z,52.49
2022-10-18T15:08:21.011Z,52.38
2022-10-18T15:11:04.423Z,52.62
2022-10-18T15:14:01.928Z,53.13
2022-10-18T15:16:53.025Z,53.44
2022-10-18T15:19:40.539Z,52.82
2022-10-18T15:22:39.052Z,53.50
2022-10-18T15:25:31.786Z,53.73
2022-10-18T15:28:21.018Z,53.89
2022-10-18T15:31:10.915Z,54.20
2022-10-18T15:34:06.907Z,52.49
2022-10-18T15:36:57.943Z,53.63
2022-10-18T15:39:40.317Z,53.87
2022-10-18T15:42:46.925Z,54.31
2022-10-18T15:45:32.980Z,54.59
2022-10-18T15:48:30.034Z,55.01
2022-10-18T15:51:22.037Z,55.59
2022-10-18T15:54:04.256Z,54.88
2022-10-18T15:56:54.065Z,53.48
2022-10-18T15:59:46.453Z,52.94
2022-10-18T16:02:28.923Z,52.71
2022-10-18T16:05:20.225Z,51.20
2022-10-18T16:08:09.925Z,50.14
2022-10-18T16:10:52.600Z,48.66
2022-10-18T16:13:43.755Z,48.02
2022-10-18T16:16:36.473Z,47.64
2022-10-18T16:19:34.074Z,47.67
2022-10-18T16:22:29.503Z,47.92
2022-10-18T16:25:13.916Z,47.75
2022-10-18T16:28:03.031Z,46.77
2022-10-18T16:30:45.385Z,47.49
2022-10-18T16:33:35.045Z,47.67
2022-10-18T16:36:33.013Z,47.07
2022-10-18T16:39:27.015Z,47.25
2022-10-18T16:42:09.203Z,48.06
2022-10-18T16:44:58.072Z,47.03
2022-10-18T16:47:40.222Z,47.59
2022-10-18T16:50:33.085Z,47.62
2022-10-18T16:53:23.951Z,47.05
2022-10-18T16:56:21.062Z,47.31
2022-10-18T16:59:10.389Z,47.05
2022-10-18T17:01:52.967Z,47.72
2022-10-18T17:04:41.951Z,47.57
2022-10-18T17:07:39.033Z,47.44
2022-10-18T17:10:29.353Z,47.19
2022-10-18T17:13:12.056Z,48.47
2022-10-18T17:16:01.388Z,47.84
2022-10-18T17:18:43.918Z,48.40
2022-10-18T17:21:27.117Z,47.51
2022-10-18T17:24:16.013Z,47.16
2022-10-18T17:27:05.050Z,47.73
2022-10-18T17:29:48.436Z,47.24
2022-10-18T17:32:37.513Z,48.55
2022-10-18T17:35:21.301Z,48.92
2022-10-18T17:38:09.913Z,49.55
2022-10-18T17:41:00.982Z,48.30
2022-10-18T17:43:49.975Z,47.97
2022-10-18T17:46:38.973Z,48.86
2022-10-18T17:49:22.871Z,50.17
2022-10-18T17:52:12.164Z,48.66
2022-10-18T17:54:54.301Z,47.33
2022-10-18T17:57:42.949Z,48.00
2022-10-18T18:00:32.113Z,46.94
2022-10-18T18:03:14.678Z,47.18
2022-10-18T18:06:03.930Z,47.88
2022-10-18T18:08:52.989Z,47.08
2022-10-18T18:11:44.611Z,47.27
2022-10-18T18:14:28.055Z,46.90
2022-10-18T18:17:24.808Z,46.92
2022-10-18T18:20:19.912Z,46.76
2022-10-18T18:23:02.398Z,46.49
2022-10-18T18:25:50.940Z,45.96
2022-10-18T18:28:33.340Z,45.01
2022-10-18T18:31:23.977Z,44.81
2022-10-18T18:34:12.979Z,44.62
2022-10-18T18:37:01.906Z,44.61
2022-10-18T18:39:44.422Z,44.29
2022-10-18T18:42:33.152Z,44.77
2022-10-18T18:45:15.410Z,44.38
2022-10-18T18:48:03.985Z,43.86
2022-10-18T18:50:59.028Z,43.94
2022-10-18T18:53:47.922Z,44.38
2022-10-18T18:56:37.015Z,46.09
2022-10-18T18:59:22.368Z,46.31
2022-10-18T19:02:10.895Z,44.14
2022-10-18T19:04:59.926Z,44.94
2022-10-18T19:07:48.895Z,44.98
2022-10-18T19:10:31.219Z,45.93
2022-10-18T19:13:19.903Z,45.96
2022-10-18T19:16:44.907Z,47.09
2022-10-18T19:19:38.963Z,45.00
2022-10-18T19:22:21.214Z,46.81
2022-10-18T19:25:09.985Z,44.41
2022-10-18T19:27:52.176Z,45.86
2022-10-18T19:30:40.972Z,45.42
2022-10-18T19:33:41.111Z,44.41
2022-10-18T19:36:31.948Z,46.54
2022-10-18T19:39:16.174Z,44.91
2022-10-18T19:42:06.891Z,44.20
2022-10-18T19:44:50.376Z,44.48
2022-10-18T19:47:38.917Z,43.95
2022-10-18T19:50:27.972Z,44.22
2022-10-18T19:53:10.152Z,44.17
2022-10-18T19:55:58.906Z,45.86
2022-10-18T19:58:41.259Z,44.97
2022-10-18T20:01:30.934Z,45.16
2022-10-18T20:04:14.919Z,47.64
2022-10-18T20:07:04.898Z,45.96
2022-10-18T20:09:48.992Z,48.14
2022-10-18T20:12:37.908Z,48.29
2022-10-18T20:15:20.098Z,45.83
2022-10-18T20:18:10.909Z,45.86
2022-10-18T20:20:53.399Z,44.96
2022-10-18T20:23:41.962Z,45.86
2022-10-18T20:26:31.208Z,44.70
2022-10-18T20:29:15.049Z,44.12
2022-10-18T20:32:09.760Z,44.29
2022-10-18T20:34:58.904Z,43.58
2022-10-18T20:37:42.194Z,44.13
2022-10-18T20:40:30.958Z,43.64
2022-10-18T20:43:13.176Z,45.31
2022-10-18T20:46:05.975Z,46.38
2022-10-18T20:48:48.370Z,43.40
2022-10-18T20:51:36.896Z,43.70
2022-10-18T20:54:27.804Z,44.90
2022-10-18T20:57:16.908Z,45.85
2022-10-18T21:00:05.787Z,43.84
2022-10-18T21:02:54.941Z,44.09
2022-10-18T21:05:38.167Z,44.54
2022-10-18T21:08:26.895Z,45.19
2022-10-18T21:11:09.195Z,43.30
2022-10-18T21:14:01.949Z,43.98
2022-10-18T21:16:45.206Z,42.95
2022-10-18T21:19:35.886Z,43.08
2022-10-18T21:22:24.891Z,42.40
2022-10-18T21:25:07.674Z,42.87
2022-10-18T21:27:56.888Z,42.75
2022-10-18T21:30:45.881Z,42.09
2022-10-18T21:33:34.164Z,43.04
2022-10-18T21:36:16.872Z,42.23
2022-10-18T21:38:59.129Z,42.03
2022-10-18T21:41:48.886Z,42.28
2022-10-18T21:44:37.868Z,41.86
2022-10-18T21:47:20.224Z,42.22
2022-10-18T21:50:08.867Z,42.71
2022-10-18T21:52:57.803Z,42.40
2022-10-18T21:55:47.888Z,42.96
2022-10-18T21:58:30.211Z,43.04
2022-10-18T22:01:24.005Z,43.56
2022-10-18T22:04:06.157Z,43.07
2022-10-18T22:06:54.883Z,42.90
2022-10-18T22:09:37.204Z,43.73
2022-10-18T22:12:25.870Z,43.67
2022-10-18T22:15:14.772Z,43.59
2022-10-18T22:18:03.866Z,45.07
2022-10-18T22:20:46.188Z,43.80
2022-10-18T22:23:40.922Z,46.30
2022-10-18T22:26:47.189Z,45.19
2022-10-18T22:29:35.860Z,45.56
2022-10-18T22:32:24.785Z,47.93
2022-10-18T22:35:13.878Z,46.82
2022-10-18T22:38:02.798Z,47.36
2022-10-18T22:40:51.791Z,47.81
2022-10-18T22:43:43.769Z,47.26
2022-10-18T22:46:33.908Z,46.17
2022-10-18T22:49:16.323Z,49.00
2022-10-18T22:52:04.938Z,48.48
2022-10-18T22:54:47.162Z,48.94
2022-10-18T22:57:37.933Z,48.66
2022-10-18T23:00:21.187Z,48.34
2022-10-18T23:03:09.872Z,49.14
2022-10-18T23:06:00.880Z,48.43
2022-10-18T23:08:43.084Z,49.99
2022-10-18T23:11:32.930Z,49.21
2022-10-18T23:14:21.201Z,48.87
2022-10-18T23:17:03.873Z,50.30
2022-10-18T23:19:46.090Z,49.02
2022-10-18T23:22:35.116Z,50.06
2022-10-18T23:25:17.199Z,50.13
2022-10-18T23:28:05.885Z,50.18
2022-10-18T23:30:48.092Z,50.12
2022-10-18T23:33:36.883Z,50.55
2022-10-18T23:36:19.651Z,50.83
2022-10-18T23:39:09.875Z,50.82
2022-10-18T23:41:58.857Z,50.48
2022-10-18T23:44:41.175Z,50.46
2022-10-18T23:47:30.082Z,51.19
2022-10-18T23:50:13.345Z,50.84
2022-10-18T23:53:01.893Z,51.52
2022-10-18T23:55:44.122Z,51.68
2022-10-18T23:58:33.955Z,51.37
